createdAt,value
2018-09-03T00:00:58.159Z,3.73
2018-09-03T00:03:25.975Z,3.23
2018-09-03T00:05:53.578Z,3.57
2018-09-03T00:08:21.475Z,3.30
2018-09-03T00:10:49.065Z,4.70
2018-09-03T00:13:16.742Z,5.30
2018-09-03T00:15:44.819Z,4.90
2018-09-03T00:18:12.850Z,5.00
2018-09-03T00:20:40.454Z,5.27
2018-09-03T00:23:08.151Z,5.30
2018-09-03T00:25:35.852Z,3.57
2018-09-03T00:28:03.511Z,3.30
2018-09-03T00:30:31.486Z,3.17
2018-09-03T00:33:04.686Z,3.17
2018-09-03T00:35:37.962Z,3.20
2018-09-03T00:38:11.214Z,3.37
2018-09-03T00:40:44.426Z,3.00
2018-09-03T00:43:17.679Z,3.07
2018-09-03T00:45:50.792Z,3.03
2018-09-03T00:48:18.543Z,3.37
2018-09-03T00:50:46.227Z,3.07
2018-09-03T00:53:13.899Z,2.70
2018-09-03T00:55:41.542Z,3.07
2018-09-03T00:58:09.194Z,3.20
2018-09-03T01:00:36.911Z,2.57
2018-09-03T01:03:04.607Z,3.07
2018-09-03T01:05:32.212Z,3.03
2018-09-03T01:07:59.799Z,3.03
2018-09-03T01:10:27.434Z,3.37
2018-09-03T01:12:55.088Z,3.03
2018-09-03T01:15:23.142Z,3.10
2018-09-03T01:17:50.943Z,3.33
2018-09-03T01:20:18.617Z,3.20
2018-09-03T01:22:46.256Z,3.90
2018-09-03T01:25:13.906Z,3.80
2018-09-03T01:27:41.528Z,3.07
2018-09-03T01:30:09.155Z,3.27
2018-09-03T01:32:36.811Z,3.70
2018-09-03T01:35:04.515Z,3.50
2018-09-03T01:37:32.106Z,2.80
2018-09-03T01:39:59.777Z,4.77
2018-09-03T01:42:27.450Z,2.83
2018-09-03T01:44:55.055Z,3.70
2018-09-03T01:47:23.560Z,3.37
2018-09-03T01:49:51.262Z,3.27
2018-09-03T01:52:18.972Z,3.40
2018-09-03T01:54:46.650Z,3.43
2018-09-03T01:57:14.297Z,3.97
2018-09-03T01:59:41.882Z,3.10
2018-09-03T02:02:09.548Z,3.33
2018-09-03T02:04:37.155Z,3.13
2018-09-03T02:07:04.851Z,3.47
2018-09-03T02:09:32.547Z,3.50
2018-09-03T02:12:00.231Z,3.13
2018-09-03T02:14:28.686Z,3.50
2018-09-03T02:16:56.354Z,3.07
2018-09-03T02:19:24.011Z,3.20
2018-09-03T02:21:51.620Z,3.53
2018-09-03T02:24:19.312Z,3.40
2018-09-03T02:26:47.027Z,3.50
2018-09-03T02:29:14.682Z,3.53
2018-09-03T02:31:42.355Z,3.67
2018-09-03T02:34:09.977Z,7.43
2018-09-03T02:36:37.588Z,6.93
2018-09-03T02:39:06.379Z,3.63
2018-09-03T02:41:34.018Z,3.70
2018-09-03T02:44:01.666Z,3.43
2018-09-03T02:46:29.347Z,3.97
2018-09-03T02:48:56.990Z,3.10
2018-09-03T02:51:24.719Z,3.10
2018-09-03T02:53:52.409Z,3.67
2018-09-03T02:56:20.013Z,3.50
2018-09-03T02:58:47.670Z,3.90
2018-09-03T03:01:15.321Z,4.13
2018-09-03T03:03:43.023Z,4.00
2018-09-03T03:06:10.694Z,4.27
2018-09-03T03:08:38.398Z,3.80
2018-09-03T03:11:06.245Z,3.27
2018-09-03T03:13:33.823Z,3.40
2018-09-03T03:16:01.484Z,3.80
2018-09-03T03:18:29.106Z,4.00
2018-09-03T03:20:56.831Z,4.30
2018-09-03T03:23:24.413Z,3.80
2018-09-03T03:25:52.183Z,3.50
2018-09-03T03:28:19.838Z,4.13
2018-09-03T03:30:47.447Z,4.17
2018-09-03T03:33:15.045Z,3.70
2018-09-03T03:35:42.716Z,3.97
2018-09-03T03:38:10.397Z,3.40
2018-09-03T03:40:38.005Z,3.87
2018-09-03T03:43:05.673Z,3.43
2018-09-03T03:45:33.274Z,3.77
2018-09-03T03:48:00.885Z,3.37
2018-09-03T03:50:28.474Z,3.90
2018-09-03T03:52:56.143Z,3.53
2018-09-03T03:55:23.871Z,4.13
2018-09-03T03:57:51.477Z,3.30
2018-09-03T04:00:19.128Z,3.90
2018-09-03T04:02:46.676Z,4.00
2018-09-03T04:05:14.304Z,3.50
2018-09-03T04:07:41.957Z,4.33
2018-09-03T04:10:09.628Z,4.10
2018-09-03T04:12:37.410Z,3.80
2018-09-03T04:15:05.175Z,3.90
2018-09-03T04:17:32.770Z,4.53
2018-09-03T04:20:03.145Z,3.43
2018-09-03T04:22:31.694Z,4.40
2018-09-03T04:24:59.382Z,3.70
2018-09-03T04:27:27.043Z,4.03
2018-09-03T04:29:54.670Z,4.00
2018-09-03T04:32:22.613Z,4.70
2018-09-03T04:34:50.199Z,4.07
2018-09-03T04:37:17.804Z,3.47
2018-09-03T04:39:45.450Z,3.17
2018-09-03T04:42:13.132Z,4.13
2018-09-03T04:44:40.793Z,3.87
2018-09-03T04:47:08.450Z,3.30
2018-09-03T04:49:36.319Z,3.30
2018-09-03T04:52:04.083Z,4.17
2018-09-03T04:54:31.798Z,3.20
2018-09-03T04:56:59.426Z,3.30
2018-09-03T04:59:26.959Z,3.47
2018-09-03T05:01:54.600Z,3.87
2018-09-03T05:04:22.274Z,3.20
2018-09-03T05:06:49.868Z,4.10
2018-09-03T05:09:17.508Z,3.57
2018-09-03T05:11:45.175Z,3.80
2018-09-03T05:14:12.755Z,4.20
2018-09-03T05:16:40.426Z,3.27
2018-09-03T05:19:08.095Z,3.70
2018-09-03T05:21:35.746Z,4.10
2018-09-03T05:24:03.492Z,4.40
2018-09-03T05:26:31.162Z,4.03
2018-09-03T05:28:59.067Z,3.97
2018-09-03T05:31:26.691Z,3.93
2018-09-03T05:33:54.379Z,4.83
2018-09-03T05:36:22.019Z,4.07
2018-09-03T05:38:49.687Z,4.30
2018-09-03T05:41:17.296Z,4.00
2018-09-03T05:43:44.969Z,3.87
2018-09-03T05:46:12.558Z,4.60
2018-09-03T05:48:40.156Z,4.93
2018-09-03T05:51:08.049Z,4.47
2018-09-03T05:53:35.763Z,4.73
2018-09-03T05:56:03.435Z,4.20
2018-09-03T05:58:31.153Z,4.77
2018-09-03T06:00:58.959Z,4.73
2018-09-03T06:03:26.576Z,4.77
2018-09-03T06:05:54.206Z,4.97
2018-09-03T06:08:22.766Z,4.17
2018-09-03T06:10:50.327Z,4.33
2018-09-03T06:13:17.982Z,4.33
2018-09-03T06:15:45.618Z,5.20
2018-09-03T06:18:13.254Z,5.00
2018-09-03T06:20:40.838Z,4.37
2018-09-03T06:23:08.442Z,4.67
2018-09-03T06:25:36.106Z,5.00
2018-09-03T06:28:03.738Z,4.60
2018-09-03T06:30:31.398Z,4.70
2018-09-03T06:32:59.006Z,5.83
2018-09-03T06:35:26.626Z,4.93
2018-09-03T06:37:54.257Z,5.10
2018-09-03T06:40:21.863Z,5.10
2018-09-03T06:42:49.706Z,6.47
2018-09-03T06:45:17.355Z,4.93
2018-09-03T06:47:44.951Z,5.20
2018-09-03T06:50:12.742Z,5.37
2018-09-03T06:52:40.450Z,5.13
2018-09-03T06:55:08.023Z,6.10
2018-09-03T06:57:35.665Z,5.90
2018-09-03T07:00:03.741Z,5.33
2018-09-03T07:02:31.383Z,5.47
2018-09-03T07:04:59.032Z,5.23
2018-09-03T07:07:26.668Z,5.30
2018-09-03T07:09:54.248Z,5.73
2018-09-03T07:12:21.866Z,6.27
2018-09-03T07:14:49.503Z,4.97
2018-09-03T07:17:17.256Z,5.40
2018-09-03T07:19:44.917Z,5.33
2018-09-03T07:22:12.522Z,5.57
2018-09-03T07:24:40.598Z,5.63
2018-09-03T07:27:08.306Z,5.27
2018-09-03T07:29:36.040Z,4.70
2018-09-03T07:32:03.731Z,5.67
2018-09-03T07:34:31.329Z,5.63
2018-09-03T07:36:58.957Z,5.23
2018-09-03T07:39:26.597Z,4.90
2018-09-03T07:41:54.705Z,5.83
2018-09-03T07:44:22.346Z,5.80
2018-09-03T07:46:49.951Z,6.53
2018-09-03T07:49:17.550Z,5.67
2018-09-03T07:51:45.275Z,6.87
2018-09-03T07:54:12.886Z,7.33
2018-09-03T07:56:40.518Z,7.63
2018-09-03T07:59:08.124Z,7.13
2018-09-03T08:01:35.755Z,7.80
2018-09-03T08:04:03.374Z,6.97
2018-09-03T08:06:34.037Z,7.90
2018-09-03T08:09:02.066Z,7.57
2018-09-03T08:11:29.694Z,6.50
2018-09-03T08:13:57.418Z,7.83
2018-09-03T08:16:25.062Z,7.43
2018-09-03T08:22:08.031Z,7.23
2018-09-03T08:24:35.663Z,6.37
2018-09-03T08:27:03.854Z,6.33
2018-09-03T08:29:31.689Z,7.33
2018-09-03T08:31:59.451Z,7.33
2018-09-03T08:34:27.077Z,7.27
2018-09-03T08:36:54.678Z,7.33
2018-09-03T08:39:22.292Z,7.97
2018-09-03T08:41:50.157Z,7.10
2018-09-03T08:44:17.864Z,7.03
2018-09-03T08:46:45.470Z,8.43
2018-09-03T08:49:13.111Z,7.83
2018-09-03T08:51:40.696Z,8.43
2018-09-03T08:54:08.412Z,6.50
2018-09-03T08:56:36.402Z,7.00
2018-09-03T08:59:04.380Z,7.23
2018-09-03T09:01:32.068Z,7.40
2018-09-03T09:03:59.694Z,6.40
2018-09-03T09:06:27.308Z,7.73
2018-09-03T09:08:54.898Z,7.30
2018-09-03T09:11:22.490Z,9.00
2018-09-03T09:13:50.111Z,10.53
2018-09-03T09:16:17.779Z,9.13
2018-09-03T09:18:45.463Z,9.33
2018-09-03T09:21:13.111Z,9.00
2018-09-03T09:23:40.784Z,12.33
2018-09-03T09:26:08.379Z,10.70
2018-09-03T09:28:36.013Z,12.00
2018-09-03T09:31:03.712Z,11.00
2018-09-03T09:33:31.401Z,11.87
2018-09-03T09:35:59.011Z,11.50
2018-09-03T09:38:26.586Z,13.40
2018-09-03T09:40:54.171Z,11.47
2018-09-03T09:43:21.853Z,10.73
2018-09-03T09:45:49.435Z,9.93
2018-09-03T09:48:17.064Z,10.93
2018-09-03T09:50:44.698Z,9.90
2018-09-03T09:53:12.399Z,9.43
2018-09-03T09:55:40.040Z,9.33
2018-09-03T09:58:07.701Z,8.87
2018-09-03T10:00:40.779Z,9.80
2018-09-03T10:03:08.379Z,9.27
2018-09-03T10:05:36.015Z,7.57
2018-09-03T10:08:03.651Z,8.17
2018-09-03T10:10:31.259Z,8.30
2018-09-03T10:12:58.895Z,6.80
2018-09-03T10:15:26.598Z,8.33
2018-09-03T10:17:54.192Z,8.40
2018-09-03T10:20:21.883Z,8.67
2018-09-03T10:22:49.494Z,8.27
2018-09-03T10:25:17.124Z,7.80
2018-09-03T10:27:44.708Z,7.40
2018-09-03T10:30:12.330Z,8.70
2018-09-03T10:32:39.989Z,7.70
2018-09-03T10:35:07.656Z,7.57
2018-09-03T10:37:35.379Z,7.83
2018-09-03T10:40:03.207Z,7.73
2018-09-03T10:42:30.811Z,9.10
2018-09-03T10:44:58.459Z,7.70
2018-09-03T10:56:31.298Z,12.10
2018-09-03T10:58:58.857Z,9.87
2018-09-03T11:01:26.504Z,7.90
2018-09-03T11:03:54.085Z,7.80
2018-09-03T11:06:21.703Z,6.97
2018-09-03T11:08:49.321Z,7.20
2018-09-03T11:11:16.979Z,6.93
2018-09-03T11:13:44.547Z,7.20
2018-09-03T11:16:12.203Z,6.07
2018-09-03T11:18:39.798Z,7.53
2018-09-03T11:21:07.483Z,7.43
2018-09-03T11:23:35.060Z,5.93
2018-09-03T11:26:02.738Z,5.27
2018-09-03T11:28:30.345Z,5.87
2018-09-03T11:30:58.032Z,6.77
2018-09-03T11:33:25.622Z,7.47
2018-09-03T11:35:53.254Z,6.10
2018-09-03T11:38:20.991Z,6.10
2018-09-03T11:40:48.693Z,6.30
2018-09-03T11:43:16.283Z,5.40
2018-09-03T11:45:43.905Z,5.50
2018-09-03T11:48:11.527Z,6.37
2018-09-03T11:50:39.183Z,8.00
2018-09-03T11:53:06.766Z,6.70
2018-09-03T11:55:34.447Z,5.90
2018-09-03T11:58:02.047Z,7.23
2018-09-03T12:00:30.749Z,6.13
2018-09-03T12:02:58.571Z,7.57
2018-09-03T12:05:26.747Z,5.60
2018-09-03T12:07:54.449Z,7.57
2018-09-03T12:10:22.168Z,7.10
2018-09-03T12:12:49.804Z,6.03
2018-09-03T12:15:29.373Z,6.73
2018-09-03T12:17:57.114Z,6.40
2018-09-03T12:20:24.867Z,6.40
2018-09-03T12:22:52.568Z,6.30
2018-09-03T12:25:20.275Z,6.37
2018-09-03T12:27:47.892Z,5.97
2018-09-03T12:30:15.500Z,6.03
2018-09-03T12:32:43.181Z,6.33
2018-09-03T12:35:11.054Z,5.90
2018-09-03T12:37:38.740Z,6.27
2018-09-03T12:40:06.509Z,5.67
2018-09-03T12:42:34.288Z,6.00
2018-09-03T12:45:01.936Z,6.20
2018-09-03T12:47:29.620Z,6.27
2018-09-03T12:49:57.267Z,6.63
2018-09-03T12:52:24.970Z,7.60
2018-09-03T12:54:52.582Z,6.37
2018-09-03T12:57:20.711Z,6.57
2018-09-03T12:59:48.363Z,6.07
2018-09-03T13:02:16.052Z,7.20
2018-09-03T13:04:43.664Z,7.77
2018-09-03T13:07:11.339Z,7.43
2018-09-03T13:09:38.990Z,9.03
2018-09-03T13:12:06.710Z,9.27
2018-09-03T13:14:34.407Z,7.00
2018-09-03T13:17:02.027Z,6.80
2018-09-03T13:19:29.824Z,6.27
2018-09-03T13:21:57.500Z,5.77
2018-09-03T13:24:25.111Z,4.67
2018-09-03T13:26:52.802Z,5.20
2018-09-03T13:29:20.472Z,6.20
2018-09-03T13:31:48.136Z,6.60
2018-09-03T13:34:16.131Z,6.20
2018-09-03T13:36:43.750Z,6.03
2018-09-03T13:39:11.443Z,6.37
2018-09-03T13:41:39.204Z,5.77
2018-09-03T13:44:07.035Z,7.87
2018-09-03T13:46:34.719Z,7.33
2018-09-03T13:49:02.341Z,7.03
2018-09-03T13:51:30.098Z,6.43
2018-09-03T13:53:57.815Z,7.70
2018-09-03T13:56:25.551Z,6.93
2018-09-03T13:58:53.182Z,7.00
2018-09-03T14:01:20.868Z,6.70
2018-09-03T14:03:48.529Z,8.70
2018-09-03T14:06:16.467Z,7.10
2018-09-03T14:08:44.171Z,6.33
2018-09-03T14:11:11.784Z,8.03
2018-09-03T14:13:39.536Z,7.10
2018-09-03T14:16:07.489Z,7.13
2018-09-03T14:18:35.127Z,6.50
2018-09-03T14:21:02.841Z,6.83
2018-09-03T14:23:30.576Z,7.77
2018-09-03T14:25:58.242Z,7.70
2018-09-03T14:28:25.926Z,7.67
2018-09-03T14:30:53.527Z,8.00
2018-09-03T14:33:21.116Z,7.30
2018-09-03T14:35:48.811Z,7.83
2018-09-03T14:38:16.411Z,7.70
2018-09-03T14:40:44.171Z,8.20
2018-09-03T14:43:11.826Z,7.80
2018-09-03T14:45:39.422Z,6.90
2018-09-03T14:48:07.082Z,7.80
2018-09-03T14:50:34.798Z,8.60
2018-09-03T14:53:02.422Z,7.93
2018-09-03T14:55:30.136Z,8.80
2018-09-03T14:57:57.831Z,7.47
2018-09-03T15:00:25.489Z,7.40
2018-09-03T15:02:53.159Z,6.83
2018-09-03T15:05:20.780Z,6.13
2018-09-03T15:07:48.462Z,8.07
2018-09-03T15:10:16.195Z,6.80
2018-09-03T15:12:43.808Z,9.97
2018-09-03T15:15:11.462Z,8.70
2018-09-03T15:17:39.215Z,6.60
2018-09-03T15:20:06.902Z,8.00
2018-09-03T15:22:34.823Z,8.37
2018-09-03T15:25:02.498Z,7.33
2018-09-03T15:27:30.239Z,7.13
2018-09-03T15:29:57.847Z,7.77
2018-09-03T15:32:25.791Z,7.90
2018-09-03T15:34:53.513Z,7.20
2018-09-03T15:37:21.081Z,6.90
2018-09-03T15:39:48.679Z,8.83
2018-09-03T15:42:16.367Z,9.17
2018-09-03T15:44:44.056Z,8.00
2018-09-03T15:47:11.675Z,9.00
2018-09-03T15:49:39.291Z,9.43
2018-09-03T15:52:06.908Z,10.87
2018-09-03T15:54:34.648Z,10.83
2018-09-03T15:57:02.338Z,11.10
2018-09-03T15:59:29.992Z,8.90
2018-09-03T16:01:57.623Z,9.77
2018-09-03T16:04:25.292Z,11.77
2018-09-03T16:06:53.051Z,14.47
2018-09-03T16:09:21.779Z,12.00
2018-09-03T16:11:49.388Z,11.50
2018-09-03T16:14:17.045Z,10.63
2018-09-03T16:16:44.751Z,13.10
2018-09-03T16:19:12.337Z,9.90
2018-09-03T16:21:40.015Z,12.17
2018-09-03T16:24:07.719Z,11.73
2018-09-03T16:26:35.335Z,11.07
2018-09-03T16:29:03.006Z,11.60
2018-09-03T16:31:30.712Z,11.00
2018-09-03T16:33:58.354Z,12.63
2018-09-03T16:36:25.995Z,11.83
2018-09-03T16:38:53.696Z,12.67
2018-09-03T16:41:21.355Z,9.30
2018-09-03T16:43:48.981Z,10.57
2018-09-03T16:46:16.650Z,9.10
2018-09-03T16:48:44.310Z,10.07
2018-09-03T16:51:11.922Z,10.53
2018-09-03T16:53:39.583Z,11.83
2018-09-03T16:56:07.259Z,17.10
2018-09-03T16:58:34.896Z,12.20
2018-09-03T17:01:02.541Z,12.40
2018-09-03T17:03:30.279Z,11.17
2018-09-03T17:05:57.907Z,10.23
2018-09-03T17:08:26.534Z,10.70
2018-09-03T17:10:54.226Z,12.07
2018-09-03T17:13:21.838Z,11.80
2018-09-03T17:15:49.544Z,10.00
2018-09-03T17:18:17.178Z,10.20
2018-09-03T17:20:44.891Z,9.03
2018-09-03T17:23:12.546Z,9.33
2018-09-03T17:25:40.566Z,9.40
2018-09-03T17:28:08.219Z,9.43
2018-09-03T17:30:35.896Z,10.17
2018-09-03T17:33:03.618Z,11.03
2018-09-03T17:35:31.338Z,9.80
2018-09-03T17:37:59.020Z,9.90
2018-09-03T17:40:26.685Z,9.50
2018-09-03T17:42:54.846Z,9.70
2018-09-03T17:45:22.587Z,10.27
2018-09-03T17:47:50.259Z,9.83
2018-09-03T17:50:18.023Z,9.17
2018-09-03T17:52:45.861Z,9.53
2018-09-03T17:55:13.655Z,10.20
2018-09-03T17:57:41.687Z,11.00
2018-09-03T18:00:10.201Z,10.70
2018-09-03T18:02:37.902Z,10.40
2018-09-03T18:05:05.742Z,10.40
2018-09-03T18:07:34.398Z,9.67
2018-09-03T18:10:02.317Z,10.73
2018-09-03T18:12:30.063Z,10.40
2018-09-03T18:14:57.682Z,10.30
2018-09-03T18:17:25.476Z,9.40
2018-09-03T18:19:53.148Z,9.00
2018-09-03T18:22:20.852Z,8.87
2018-09-03T18:24:48.641Z,9.20
2018-09-03T18:27:16.595Z,8.37
2018-09-03T18:29:44.234Z,8.50
2018-09-03T18:32:11.990Z,9.03
2018-09-03T18:34:40.509Z,9.40
2018-09-03T18:42:07.963Z,9.53
2018-09-03T18:44:35.778Z,9.53
2018-09-03T18:47:03.458Z,9.00
2018-09-03T18:49:31.137Z,7.90
2018-09-03T18:51:58.790Z,9.30
2018-09-03T18:54:26.446Z,9.33
2018-09-03T18:56:54.136Z,8.90
2018-09-03T18:59:21.886Z,10.03
2018-09-03T19:01:49.823Z,9.40
2018-09-03T19:04:17.498Z,9.73
2018-09-03T19:06:45.247Z,8.63
2018-09-03T19:09:12.916Z,9.97
2018-09-03T19:11:40.639Z,10.23
2018-09-03T19:14:08.571Z,25.47
2018-09-03T19:16:36.331Z,14.40
2018-09-03T19:19:04.111Z,10.13
2018-09-03T19:21:32.621Z,9.47
2018-09-03T19:24:00.430Z,8.57
2018-09-03T19:26:28.277Z,9.50
2018-09-03T19:28:55.976Z,9.13
2018-09-03T19:31:23.979Z,9.70
2018-09-03T19:33:51.655Z,9.30
2018-09-03T19:36:19.298Z,9.27
2018-09-03T19:38:47.101Z,8.80
2018-09-03T19:41:15.057Z,10.50
2018-09-03T19:43:42.740Z,12.07
2018-09-03T19:46:10.599Z,9.70
2018-09-03T19:48:38.479Z,9.20
2018-09-03T19:51:06.070Z,9.40
2018-09-03T19:53:33.754Z,9.57
2018-09-03T19:56:01.396Z,8.70
2018-09-03T19:58:28.973Z,8.80
2018-09-03T20:00:56.818Z,9.70
2018-09-03T20:03:24.563Z,8.97
2018-09-03T20:05:53.035Z,8.77
2018-09-03T20:08:20.829Z,8.50
2018-09-03T20:10:48.742Z,9.80
2018-09-03T20:13:16.767Z,10.37
2018-09-03T20:15:44.524Z,9.80
2018-09-03T20:18:12.258Z,9.40
2018-09-03T20:20:40.060Z,9.23
2018-09-03T20:23:07.836Z,8.00
2018-09-03T20:25:35.497Z,8.40
2018-09-03T20:28:03.241Z,8.17
2018-09-03T20:30:30.958Z,8.10
2018-09-03T20:32:58.570Z,8.97
2018-09-03T20:35:26.178Z,8.37
2018-09-03T20:37:53.854Z,8.57
2018-09-03T20:40:21.523Z,8.70
2018-09-03T20:42:49.364Z,8.90
2018-09-03T20:45:17.028Z,7.90
2018-09-03T20:47:44.923Z,8.00
2018-09-03T20:50:12.563Z,9.13
2018-09-03T20:52:40.263Z,7.80
2018-09-03T20:55:08.265Z,8.03
2018-09-03T20:57:35.987Z,9.40
2018-09-03T21:00:04.053Z,7.17
2018-09-03T21:02:31.717Z,7.80
2018-09-03T21:04:59.368Z,8.27
2018-09-03T21:07:27.098Z,8.83
2018-09-03T21:09:54.963Z,7.70
2018-09-03T21:12:22.599Z,8.90
2018-09-03T21:14:50.230Z,8.73
2018-09-03T21:17:17.907Z,9.90
2018-09-03T21:19:45.553Z,9.00
2018-09-03T21:22:13.203Z,11.50
2018-09-03T21:24:40.826Z,9.40
2018-09-03T21:27:10.024Z,9.63
2018-09-03T21:29:37.707Z,8.90
2018-09-03T21:32:05.565Z,9.50
2018-09-03T21:34:33.370Z,9.10
2018-09-03T21:37:01.034Z,8.50
2018-09-03T21:39:28.691Z,9.20
2018-09-03T21:41:56.448Z,9.17
2018-09-03T21:44:24.150Z,8.90
2018-09-03T21:46:51.839Z,9.20
2018-09-03T21:49:19.650Z,8.90
2018-09-03T21:51:47.279Z,8.30
2018-09-03T21:54:14.976Z,8.80
2018-09-03T21:56:42.606Z,8.60
2018-09-03T21:59:10.255Z,8.77
2018-09-03T22:01:37.967Z,8.83
2018-09-03T22:04:05.610Z,8.77
2018-09-03T22:06:33.250Z,9.37
2018-09-03T22:09:01.295Z,9.97
2018-09-03T22:11:29.088Z,9.80
2018-09-03T22:13:56.914Z,8.50
2018-09-03T22:16:24.648Z,9.63
2018-09-03T22:18:52.271Z,9.17
2018-09-03T22:21:20.012Z,10.37
2018-09-03T22:23:47.718Z,9.37
2018-09-03T22:26:15.438Z,10.37
2018-09-03T22:28:43.030Z,10.73
2018-09-03T22:31:11.007Z,10.63
2018-09-03T22:33:38.773Z,9.80
2018-09-03T22:36:06.846Z,10.10
2018-09-03T22:38:34.508Z,9.60
2018-09-03T22:41:02.205Z,11.50
2018-09-03T22:43:30.375Z,11.33
2018-09-03T22:46:00.043Z,10.43
2018-09-03T22:48:27.623Z,10.30
2018-09-03T22:50:55.319Z,9.33
2018-09-03T22:53:23.387Z,9.70
2018-09-03T22:55:51.069Z,10.73
2018-09-03T22:58:18.738Z,9.70
2018-09-03T23:00:47.007Z,9.37
2018-09-03T23:03:14.670Z,9.37
2018-09-03T23:05:42.421Z,11.03
2018-09-03T23:08:10.054Z,10.40
2018-09-03T23:10:37.718Z,10.70
2018-09-03T23:13:05.430Z,10.20
2018-09-03T23:15:33.134Z,10.00
2018-09-03T23:18:00.821Z,11.30
2018-09-03T23:20:28.514Z,10.53
2018-09-03T23:22:56.134Z,10.70
2018-09-03T23:25:23.815Z,11.20
2018-09-03T23:27:51.374Z,11.77
2018-09-03T23:30:19.063Z,11.40
2018-09-03T23:32:46.685Z,12.90
2018-09-03T23:35:14.359Z,11.43
2018-09-03T23:37:41.970Z,11.20
2018-09-03T23:40:09.605Z,10.80
2018-09-03T23:42:37.267Z,10.33
2018-09-03T23:45:05.049Z,11.90
2018-09-03T23:47:32.724Z,11.90
2018-09-03T23:50:00.659Z,10.90
2018-09-03T23:52:28.626Z,12.37
2018-09-03T23:54:56.242Z,10.97
2018-09-03T23:57:23.913Z,12.13
2018-09-03T23:59:51.568Z,10.73
